Time;durP1;ratioP1;P1;durP2;ratioP2;P2;SDS_P1;SDS_P2;PMS_P1;PMS_P2;Temp;Humidity;BMP_temperature;BMP_pressure;BME280_temperature;BME280_humidity;BME280_pressure;Samples;Min_cycle;Max_cycle;Signal;HPM_P1;HPM_P2
2022/09/15 00:01:59;;;;;;;2.80;2.60;;;16.80;99.90;;;;;;478937;248;28801;-70
2022/09/15 00:04:00;;;;;;;2.30;2.10;;;16.70;99.90;;;;;;478930;248;28823;-69
2022/09/15 00:06:01;;;;;;;2.80;2.37;;;16.70;99.90;;;;;;478888;248;29316;-72
2022/09/15 00:08:03;;;;;;;2.47;2.27;;;16.70;99.90;;;;;;478851;248;28708;-69
2022/09/15 00:10:04;;;;;;;2.27;2.00;;;16.80;99.90;;;;;;478902;248;29293;-70
2022/09/15 00:12:05;;;;;;;2.80;2.00;;;16.80;99.90;;;;;;478913;248;29320;-70
2022/09/15 00:14:06;;;;;;;3.20;2.07;;;16.70;99.90;;;;;;478973;248;29165;-69
2022/09/15 00:16:08;;;;;;;2.30;2.10;;;16.70;99.90;;;;;;478893;248;29304;-71
2022/09/15 00:18:09;;;;;;;2.30;2.10;;;16.70;99.90;;;;;;478972;248;29174;-69
2022/09/15 00:20:10;;;;;;;2.10;2.00;;;16.70;99.90;;;;;;478924;248;28762;-71
2022/09/15 00:22:11;;;;;;;3.40;2.30;;;16.70;99.90;;;;;;478952;248;28706;-70
2022/09/15 00:24:13;;;;;;;3.03;2.10;;;16.80;99.90;;;;;;478977;248;28719;-70
2022/09/15 00:26:14;;;;;;;3.33;2.30;;;16.80;99.90;;;;;;478512;248;28825;-71
2022/09/15 00:28:15;;;;;;;2.53;2.33;;;16.70;99.90;;;;;;478939;248;28724;-70
2022/09/15 00:30:16;;;;;;;2.30;1.73;;;16.70;99.90;;;;;;478932;247;28756;-69
2022/09/15 00:32:18;;;;;;;2.50;2.30;;;16.70;99.90;;;;;;478936;248;28833;-69
2022/09/15 00:34:19;;;;;;;2.73;2.30;;;16.70;99.90;;;;;;478963;247;28731;-70
2022/09/15 00:36:20;;;;;;;2.07;1.97;;;16.70;99.90;;;;;;478857;248;29744;-71
2022/09/15 00:38:21;;;;;;;3.23;2.40;;;16.70;99.90;;;;;;478933;248;29181;-69
2022/09/15 00:40:23;;;;;;;2.53;2.33;;;16.70;99.90;;;;;;478924;248;29326;-69
2022/09/15 00:42:24;;;;;;;2.50;2.30;;;16.70;99.90;;;;;;478934;248;29158;-69
2022/09/15 00:44:25;;;;;;;2.20;2.10;;;16.70;99.90;;;;;;478966;248;28796;-70
2022/09/15 00:46:27;;;;;;;2.30;2.00;;;16.70;99.90;;;;;;478811;248;29248;-71
2022/09/15 00:48:28;;;;;;;2.20;2.10;;;16.70;99.90;;;;;;478945;248;28820;-70
2022/09/15 00:50:29;;;;;;;2.27;2.17;;;16.70;99.90;;;;;;478920;248;28834;-70
2022/09/15 00:52:30;;;;;;;3.00;2.70;;;16.70;99.90;;;;;;478897;248;28705;-70
2022/09/15 00:54:31;;;;;;;2.37;2.17;;;16.70;99.90;;;;;;478956;248;28720;-69
2022/09/15 00:56:33;;;;;;;2.40;2.20;;;16.70;99.90;;;;;;478913;248;28777;-70
2022/09/15 00:58:35;;;;;;;2.60;2.40;;;16.70;99.90;;;;;;478945;248;28710;-70
2022/09/15 01:00:35;;;;;;;3.30;2.67;;;16.70;99.90;;;;;;478903;248;28838;-70
2022/09/15 01:02:37;;;;;;;4.43;3.33;;;16.70;99.90;;;;;;478940;248;30082;-70
2022/09/15 01:04:38;;;;;;;3.27;2.97;;;16.70;99.90;;;;;;478944;248;29360;-70
2022/09/15 01:06:39;;;;;;;2.77;2.57;;;16.70;99.90;;;;;;478890;248;29345;-70
2022/09/15 01:08:40;;;;;;;3.00;2.80;;;16.60;99.90;;;;;;478892;248;28817;-69
2022/09/15 01:10:42;;;;;;;3.60;3.10;;;16.70;99.90;;;;;;478934;246;28760;-70
2022/09/15 01:12:43;;;;;;;3.47;2.93;;;16.60;99.90;;;;;;478893;248;28762;-69
2022/09/15 01:14:44;;;;;;;3.67;3.37;;;16.60;99.90;;;;;;478969;248;28716;-69
2022/09/15 01:16:45;;;;;;;3.40;3.20;;;16.60;99.90;;;;;;478907;248;28775;-71
2022/09/15 01:18:47;;;;;;;3.07;2.87;;;16.60;99.90;;;;;;478945;248;28802;-70
2022/09/15 01:20:48;;;;;;;3.63;3.33;;;16.60;99.90;;;;;;478929;248;28775;-70
2022/09/15 01:22:50;;;;;;;2.83;2.63;;;16.60;99.90;;;;;;478911;248;29121;-69
2022/09/15 01:24:50;;;;;;;3.37;2.50;;;16.60;99.90;;;;;;478934;248;28779;-70
2022/09/15 01:26:52;;;;;;;3.30;2.97;;;16.60;99.90;;;;;;478894;248;29277;-70
2022/09/15 01:28:53;;;;;;;3.93;3.10;;;16.60;99.90;;;;;;478950;248;29160;-69
2022/09/15 01:30:54;;;;;;;8.20;3.50;;;16.60;99.90;;;;;;478926;248;29325;-70
2022/09/15 01:33:04;;;;;;;3.00;2.77;;;16.60;99.90;;;;;;478935;248;28869;-70
2022/09/15 01:35:06;;;;;;;4.37;3.13;;;16.60;99.90;;;;;;478966;248;28748;-72
2022/09/15 01:37:07;;;;;;;4.73;4.00;;;16.60;99.90;;;;;;478886;248;28807;-69
2022/09/15 01:39:08;;;;;;;3.90;3.60;;;16.50;99.90;;;;;;478930;248;28887;-70
2022/09/15 01:41:09;;;;;;;4.87;3.27;;;16.50;99.90;;;;;;478937;248;29245;-69
2022/09/15 01:43:10;;;;;;;4.10;3.10;;;16.50;99.90;;;;;;478926;248;29268;-69
2022/09/15 01:45:12;;;;;;;3.77;3.47;;;16.60;99.90;;;;;;478951;248;29218;-72
2022/09/15 01:47:13;;;;;;;3.83;3.10;;;16.50;99.90;;;;;;478857;248;28720;-69
2022/09/15 01:49:14;;;;;;;9.03;3.70;;;16.60;99.90;;;;;;478946;248;28770;-69
2022/09/15 01:51:16;;;;;;;3.90;3.60;;;16.50;99.90;;;;;;478940;248;28727;-70
2022/09/15 01:53:17;;;;;;;4.70;3.60;;;16.60;99.90;;;;;;478923;248;28794;-70
2022/09/15 01:55:18;;;;;;;4.80;4.40;;;16.50;99.90;;;;;;478981;248;28757;-72
2022/09/15 01:57:22;;;;;;;9.40;4.77;;;16.50;99.90;;;;;;478937;247;28721;-70
2022/09/15 01:59:23;;;;;;;4.30;3.90;;;16.50;99.90;;;;;;478936;248;28726;-70
2022/09/15 02:01:26;;;;;;;5.03;4.63;;;16.60;99.90;;;;;;478966;248;28759;-70
2022/09/15 02:03:26;;;;;;;6.17;4.90;;;16.50;99.90;;;;;;478846;248;28717;-69
2022/09/15 02:05:29;;;;;;;5.17;4.43;;;16.50;99.90;;;;;;478935;248;29239;-70
2022/09/15 02:07:30;;;;;;;4.90;4.50;;;16.50;99.90;;;;;;478837;248;29270;-72
2022/09/15 02:09:29;;;;;;;5.60;4.47;;;16.50;99.90;;;;;;478814;248;29271;-69
2022/09/15 02:11:31;;;;;;;4.77;4.07;;;16.50;99.90;;;;;;478940;248;29402;-70
2022/09/15 02:13:32;;;;;;;4.57;4.27;;;16.60;99.90;;;;;;478908;246;28807;-70
2022/09/15 02:15:33;;;;;;;4.57;4.17;;;16.50;99.90;;;;;;478919;248;28852;-70
2022/09/15 02:17:37;;;;;;;4.77;4.37;;;16.50;99.90;;;;;;478877;248;28780;-72
2022/09/15 02:19:37;;;;;;;4.60;4.17;;;16.50;99.90;;;;;;478905;248;28759;-70
2022/09/15 02:21:39;;;;;;;4.40;4.00;;;16.60;99.90;;;;;;478919;248;28724;-70
2022/09/15 02:23:39;;;;;;;7.13;3.70;;;16.60;99.90;;;;;;478849;248;29244;-70
2022/09/15 02:25:42;;;;;;;4.60;4.30;;;16.60;99.90;;;;;;478942;248;29354;-69
2022/09/15 02:27:43;;;;;;;5.23;4.13;;;16.50;99.90;;;;;;478843;248;29252;-70
2022/09/15 02:29:43;;;;;;;4.90;4.50;;;16.60;99.90;;;;;;478889;248;29208;-70
2022/09/15 02:31:44;;;;;;;6.53;4.50;;;16.60;99.90;;;;;;478913;246;28823;-69
2022/09/15 02:33:46;;;;;;;4.73;4.33;;;16.50;99.90;;;;;;478901;248;28758;-70
2022/09/15 02:35:47;;;;;;;5.50;5.00;;;16.50;99.90;;;;;;478954;248;28732;-70
2022/09/15 02:37:48;;;;;;;6.23;5.63;;;16.50;99.90;;;;;;478931;246;28755;-69
2022/09/15 02:39:49;;;;;;;5.87;4.87;;;16.50;99.90;;;;;;478974;248;28777;-70
2022/09/15 02:41:51;;;;;;;5.30;4.80;;;16.50;99.90;;;;;;478959;248;28733;-70
2022/09/15 02:43:52;;;;;;;5.67;5.17;;;16.50;99.90;;;;;;478926;248;28761;-70
2022/09/15 02:45:53;;;;;;;4.90;4.33;;;16.50;99.90;;;;;;478896;248;29217;-69
2022/09/15 02:47:55;;;;;;;4.60;4.20;;;16.50;99.90;;;;;;478871;248;29322;-69
2022/09/15 02:49:56;;;;;;;3.90;3.60;;;16.60;99.90;;;;;;478885;248;29205;-70
2022/09/15 02:51:57;;;;;;;4.53;3.50;;;16.60;99.90;;;;;;478878;248;29177;-70
2022/09/15 02:53:58;;;;;;;4.37;3.80;;;16.60;99.90;;;;;;478918;248;29247;-70
2022/09/15 02:55:59;;;;;;;4.60;4.20;;;16.50;99.90;;;;;;478889;247;28744;-71
2022/09/15 02:58:01;;;;;;;5.10;4.20;;;16.50;99.90;;;;;;478898;248;28843;-69
2022/09/15 03:00:15;;;;;;;4.87;4.40;;;16.60;99.90;;;;;;478947;248;28845;-70
2022/09/15 03:02:16;;;;;;;5.00;4.50;;;16.50;99.90;;;;;;478876;248;28717;-70
2022/09/15 03:04:16;;;;;;;4.60;4.20;;;16.50;99.90;;;;;;478891;248;29465;-70
2022/09/15 03:06:19;;;;;;;4.90;4.43;;;16.50;99.90;;;;;;478877;248;29927;-69
2022/09/15 03:08:19;;;;;;;5.13;4.73;;;16.50;99.90;;;;;;478874;248;29334;-69
2022/09/15 03:10:20;;;;;;;5.13;4.70;;;16.50;99.90;;;;;;478949;248;29255;-71
2022/09/15 03:12:21;;;;;;;4.50;4.10;;;16.50;99.90;;;;;;478953;248;28729;-69
2022/09/15 03:14:23;;;;;;;4.20;3.90;;;16.50;99.90;;;;;;478938;247;28827;-69
2022/09/15 03:16:24;;;;;;;4.93;4.53;;;16.50;99.90;;;;;;478901;248;28807;-69
2022/09/15 03:18:25;;;;;;;5.30;4.83;;;16.50;99.90;;;;;;478960;248;28712;-69
2022/09/15 03:20:27;;;;;;;5.40;4.90;;;16.50;99.90;;;;;;478886;246;28795;-70
2022/09/15 03:22:27;;;;;;;6.03;5.53;;;16.50;99.90;;;;;;478907;248;28811;-69
2022/09/15 03:24:29;;;;;;;4.87;4.47;;;16.50;99.90;;;;;;478982;247;28784;-70
2022/09/15 03:26:30;;;;;;;5.93;5.33;;;16.60;99.90;;;;;;478888;248;29101;-72
2022/09/15 03:28:31;;;;;;;5.67;5.10;;;16.60;99.90;;;;;;478958;248;28729;-69
2022/09/15 03:30:32;;;;;;;6.20;5.60;;;16.50;99.90;;;;;;478964;248;29249;-70
2022/09/15 03:32:34;;;;;;;5.90;5.30;;;16.50;99.90;;;;;;478989;248;29335;-69
2022/09/15 03:34:35;;;;;;;7.20;5.73;;;16.50;99.90;;;;;;478968;248;29307;-69
2022/09/15 03:36:37;;;;;;;5.20;4.80;;;16.50;99.90;;;;;;478909;248;28772;-69
2022/09/15 03:38:37;;;;;;;5.33;4.93;;;16.50;99.90;;;;;;478971;248;28863;-69
2022/09/15 03:40:39;;;;;;;4.97;4.57;;;16.60;99.90;;;;;;478961;248;28869;-70
2022/09/15 03:42:40;;;;;;;5.17;4.77;;;16.60;99.90;;;;;;478930;248;28712;-69
2022/09/15 03:44:41;;;;;;;5.43;4.97;;;16.60;99.90;;;;;;478913;248;28744;-70
2022/09/15 03:46:42;;;;;;;6.03;5.47;;;16.60;99.90;;;;;;478918;247;28782;-69
2022/09/15 03:48:44;;;;;;;6.30;5.70;;;16.60;99.90;;;;;;478931;248;28808;-69
2022/09/15 03:50:45;;;;;;;6.57;5.97;;;16.60;99.90;;;;;;478950;248;28761;-70
2022/09/15 03:52:46;;;;;;;6.20;5.70;;;16.60;99.90;;;;;;478921;248;28861;-69
2022/09/15 03:54:48;;;;;;;6.70;6.10;;;16.60;99.90;;;;;;478930;248;29256;-69
2022/09/15 03:56:50;;;;;;;7.03;6.33;;;16.60;99.90;;;;;;478926;246;29357;-72
2022/09/15 03:58:50;;;;;;;7.80;7.00;;;16.60;99.90;;;;;;478870;248;29170;-70
2022/09/15 04:00:51;;;;;;;6.53;5.90;;;16.60;99.90;;;;;;478925;248;28818;-71
2022/09/15 04:02:53;;;;;;;9.53;6.93;;;16.60;99.90;;;;;;478927;248;28821;-69
2022/09/15 04:04:54;;;;;;;7.00;5.87;;;16.60;99.90;;;;;;478912;248;28831;-70
2022/09/15 04:06:55;;;;;;;6.17;5.57;;;16.60;99.90;;;;;;478914;246;28785;-72
2022/09/15 04:08:56;;;;;;;7.03;5.93;;;16.60;99.90;;;;;;478942;248;28728;-69
2022/09/15 04:10:59;;;;;;;5.90;5.40;;;16.60;99.90;;;;;;478926;247;28905;-70
2022/09/15 04:12:59;;;;;;;6.13;5.63;;;16.60;99.90;;;;;;478865;248;28772;-70
2022/09/15 04:15:00;;;;;;;5.87;5.37;;;16.60;99.90;;;;;;478507;247;28725;-70
2022/09/15 04:17:01;;;;;;;6.23;5.57;;;16.60;99.90;;;;;;477802;248;29127;-72
2022/09/15 04:19:03;;;;;;;7.23;5.73;;;16.60;99.90;;;;;;478553;248;29186;-69
2022/09/15 04:21:04;;;;;;;6.97;6.27;;;16.60;99.90;;;;;;478711;246;29304;-70
2022/09/15 04:23:05;;;;;;;7.90;6.90;;;16.60;99.90;;;;;;478917;248;29174;-69
2022/09/15 04:25:07;;;;;;;6.03;5.43;;;16.50;99.90;;;;;;478973;248;28791;-70
2022/09/15 04:27:08;;;;;;;8.00;5.80;;;16.60;99.90;;;;;;478859;248;28850;-71
2022/09/15 04:29:09;;;;;;;8.67;7.27;;;16.60;99.90;;;;;;478958;248;28758;-69
2022/09/15 04:31:10;;;;;;;6.87;6.27;;;16.60;99.90;;;;;;478944;248;28850;-71
2022/09/15 04:33:11;;;;;;;7.07;6.37;;;16.60;99.90;;;;;;478962;246;28861;-69
2022/09/15 04:35:13;;;;;;;6.27;5.70;;;16.60;99.90;;;;;;478955;248;28725;-69
2022/09/15 04:37:14;;;;;;;6.53;6.03;;;16.60;99.90;;;;;;478852;248;28757;-70
2022/09/15 04:39:15;;;;;;;5.73;5.23;;;16.60;99.90;;;;;;478941;248;28782;-70
2022/09/15 04:41:16;;;;;;;6.47;5.87;;;16.60;99.90;;;;;;478937;248;28796;-70
2022/09/15 04:43:18;;;;;;;6.60;6.07;;;16.60;99.90;;;;;;478943;248;29093;-69
2022/09/15 04:45:19;;;;;;;6.63;5.50;;;16.60;99.90;;;;;;478959;248;28753;-70
2022/09/15 04:47:20;;;;;;;6.70;6.10;;;16.60;99.90;;;;;;478870;248;28792;-71
2022/09/15 04:49:21;;;;;;;6.30;5.13;;;16.60;99.90;;;;;;478925;248;29232;-70
2022/09/15 04:51:23;;;;;;;5.87;5.37;;;16.60;99.90;;;;;;478917;246;29279;-70
2022/09/15 04:53:24;;;;;;;7.03;6.30;;;16.60;99.90;;;;;;478941;248;29302;-69
2022/09/15 04:55:26;;;;;;;5.90;5.40;;;16.60;99.90;;;;;;478971;248;28715;-70
2022/09/15 04:57:26;;;;;;;6.70;6.10;;;16.50;99.90;;;;;;478766;248;28866;-70
2022/09/15 04:59:28;;;;;;;8.90;6.70;;;16.50;99.90;;;;;;478965;248;28713;-69
2022/09/15 05:01:29;;;;;;;6.77;6.17;;;16.50;99.90;;;;;;478934;248;28830;-70
2022/09/15 05:03:30;;;;;;;6.20;5.60;;;16.50;99.90;;;;;;478936;246;28741;-69
2022/09/15 05:05:31;;;;;;;5.73;4.97;;;16.60;99.90;;;;;;478984;247;28812;-70
2022/09/15 05:07:33;;;;;;;5.47;5.00;;;16.60;99.90;;;;;;478903;248;28873;-71
2022/09/15 05:09:34;;;;;;;5.03;4.63;;;16.60;99.90;;;;;;478948;248;28728;-70
2022/09/15 05:11:35;;;;;;;5.63;5.10;;;16.60;99.90;;;;;;478931;248;28752;-70
2022/09/15 05:13:36;;;;;;;5.03;4.63;;;16.60;99.90;;;;;;478933;248;29790;-69
2022/09/15 05:15:38;;;;;;;7.30;5.30;;;16.60;99.90;;;;;;478968;246;29189;-70
2022/09/15 05:17:39;;;;;;;5.80;5.30;;;16.60;99.90;;;;;;478887;248;29364;-71
2022/09/15 05:19:40;;;;;;;6.00;5.23;;;16.60;99.90;;;;;;478955;247;29157;-69
2022/09/15 05:21:42;;;;;;;6.33;5.60;;;16.60;99.90;;;;;;478924;246;28785;-70
2022/09/15 05:23:43;;;;;;;5.33;4.90;;;16.60;99.90;;;;;;478930;248;28741;-69
2022/09/15 05:25:44;;;;;;;6.73;5.60;;;16.60;99.90;;;;;;478976;248;28720;-69
2022/09/15 05:27:45;;;;;;;5.43;4.57;;;16.40;99.90;;;;;;478881;248;28746;-71
2022/09/15 05:29:47;;;;;;;4.23;3.93;;;16.20;99.90;;;;;;478934;248;28729;-69
2022/09/15 05:31:48;;;;;;;2.83;2.63;;;15.90;99.90;;;;;;478910;248;28762;-71
2022/09/15 05:33:49;;;;;;;2.47;2.37;;;15.70;99.90;;;;;;478901;248;28750;-70
2022/09/15 05:35:50;;;;;;;2.27;2.07;;;15.50;99.90;;;;;;478928;248;28715;-70
2022/09/15 05:37:51;;;;;;;2.43;2.20;;;15.30;99.90;;;;;;478876;248;29297;-70
2022/09/15 05:39:53;;;;;;;2.10;2.00;;;14.90;99.90;;;;;;478928;248;29188;-70
2022/09/15 05:41:54;;;;;;;2.43;2.23;;;14.80;99.90;;;;;;478935;248;28864;-70
2022/09/15 05:43:59;;;;;;;2.67;2.47;;;14.80;99.90;;;;;;478962;248;28764;-69
2022/09/15 05:45:57;;;;;;;3.50;3.20;;;14.50;99.90;;;;;;478846;248;28778;-69
2022/09/15 05:47:58;;;;;;;4.33;3.90;;;14.40;99.90;;;;;;478885;248;28751;-70
2022/09/15 05:49:59;;;;;;;5.00;4.50;;;14.20;99.90;;;;;;478935;248;28753;-69
2022/09/15 05:52:00;;;;;;;9.47;5.20;;;14.00;99.90;;;;;;478922;248;28421;-70
2022/09/15 05:54:01;;;;;;;6.80;6.10;;;13.90;99.90;;;;;;478920;248;29827;-69
2022/09/15 05:56:03;;;;;;;7.20;6.20;;;13.80;99.90;;;;;;478905;248;29205;-73
2022/09/15 05:58:04;;;;;;;10.80;7.40;;;13.80;99.90;;;;;;478910;248;28239;-71
2022/09/15 06:00:05;;;;;;;8.43;6.20;;;13.70;99.90;;;;;;478924;246;28217;-69
2022/09/15 06:02:07;;;;;;;10.47;7.70;;;13.70;99.90;;;;;;478912;248;28942;-71
2022/09/15 06:04:08;;;;;;;8.90;7.13;;;13.60;99.90;;;;;;478928;248;28659;-72
2022/09/15 06:06:09;;;;;;;12.10;8.00;;;13.50;99.90;;;;;;478864;248;28727;-69
2022/09/15 06:08:11;;;;;;;10.53;7.53;;;13.50;99.90;;;;;;478889;248;28364;-71
2022/09/15 06:10:12;;;;;;;10.67;8.20;;;13.50;99.90;;;;;;478936;248;28311;-69
2022/09/15 06:12:13;;;;;;;13.50;9.30;;;13.50;99.90;;;;;;478940;248;28119;-70
2022/09/15 06:14:14;;;;;;;11.57;8.53;;;13.40;99.90;;;;;;478947;248;28173;-69
2022/09/15 06:16:17;;;;;;;15.00;9.87;;;13.50;99.90;;;;;;478900;248;28109;-69
2022/09/15 06:18:17;;;;;;;14.10;9.67;;;13.50;99.90;;;;;;478894;248;28194;-71
2022/09/15 06:20:18;;;;;;;15.37;9.67;;;13.40;99.90;;;;;;478930;248;28549;-69
2022/09/15 06:22:19;;;;;;;11.20;8.40;;;13.50;99.90;;;;;;478927;248;28625;-69
2022/09/15 06:24:20;;;;;;;9.17;7.07;;;13.50;99.90;;;;;;478973;248;28770;-72
2022/09/15 06:26:22;;;;;;;8.07;6.60;;;13.60;99.90;;;;;;478907;248;28249;-69
2022/09/15 06:28:23;;;;;;;10.53;7.43;;;13.70;99.90;;;;;;478963;247;28157;-71
2022/09/15 06:30:24;;;;;;;10.87;6.77;;;13.50;99.90;;;;;;478949;248;28187;-69
2022/09/15 06:32:25;;;;;;;12.07;7.93;;;13.60;99.90;;;;;;478934;248;28160;-69
2022/09/15 06:34:27;;;;;;;9.77;7.00;;;13.40;99.90;;;;;;478960;248;28800;-73
2022/09/15 06:36:28;;;;;;;12.80;7.17;;;13.30;99.90;;;;;;478903;248;28097;-69
2022/09/15 06:38:30;;;;;;;8.97;7.00;;;13.30;99.90;;;;;;478925;248;28222;-69
2022/09/15 06:40:30;;;;;;;12.40;7.77;;;13.30;99.90;;;;;;478904;248;28576;-69
2022/09/15 06:42:32;;;;;;;9.67;6.90;;;13.40;99.90;;;;;;478921;248;28557;-70
2022/09/15 06:44:33;;;;;;;11.37;7.20;;;13.40;99.90;;;;;;478965;248;28649;-71
2022/09/15 06:46:34;;;;;;;14.53;8.07;;;13.30;99.90;;;;;;478882;247;28095;-69
2022/09/15 06:48:35;;;;;;;12.47;8.63;;;13.20;99.90;;;;;;478919;248;28309;-69
2022/09/15 06:50:37;;;;;;;15.40;9.70;;;13.20;99.90;;;;;;478911;248;28089;-69
2022/09/15 06:52:39;;;;;;;18.57;9.10;;;;;;;;;;478942;248;28122;-68
2022/09/15 06:54:40;;;;;;;16.80;10.47;;;13.30;99.90;;;;;;478931;246;26612;-69
2022/09/15 06:56:42;;;;;;;15.63;10.07;;;13.30;99.90;;;;;;478875;246;28133;-69
2022/09/15 06:58:43;;;;;;;17.40;10.80;;;13.40;99.90;;;;;;478911;248;28118;-69
2022/09/15 07:00:45;;;;;;;17.80;10.10;;;13.40;99.90;;;;;;478951;246;28193;-69
2022/09/15 07:02:45;;;;;;;16.00;11.10;;;13.30;99.90;;;;;;478901;248;28232;-70
2022/09/15 07:04:47;;;;;;;13.87;9.03;;;13.40;99.90;;;;;;478950;248;28202;-69
2022/09/15 07:06:49;;;;;;;13.93;8.87;;;13.60;99.90;;;;;;478865;248;28911;-69
2022/09/15 07:08:49;;;;;;;13.13;9.03;;;13.60;99.90;;;;;;478830;248;29437;-68
2022/09/15 07:10:51;;;;;;;15.20;10.10;;;13.60;99.90;;;;;;478956;248;28077;-69
2022/09/15 07:12:54;;;;;;;13.07;9.07;;;;;;;;;;478938;248;28205;-69
2022/09/15 07:14:54;;;;;;;12.60;9.43;;;13.70;99.90;;;;;;478908;248;27030;-69
2022/09/15 07:16:55;;;;;;;13.30;9.83;;;13.70;99.90;;;;;;478859;248;29678;-69
2022/09/15 07:18:59;;;;;;;18.10;7.50;;;13.80;99.90;;;;;;478960;248;28647;-69
2022/09/15 07:20:58;;;;;;;11.57;7.67;;;14.00;99.90;;;;;;478815;248;28233;-71
2022/09/15 07:22:59;;;;;;;12.63;8.27;;;14.00;99.90;;;;;;478955;248;28468;-69
2022/09/15 07:25:00;;;;;;;10.90;8.03;;;14.00;99.90;;;;;;478940;248;28348;-69
2022/09/15 07:27:02;;;;;;;11.03;7.80;;;14.00;99.90;;;;;;478800;248;28736;-69
2022/09/15 07:29:03;;;;;;;10.93;7.70;;;14.00;99.90;;;;;;478979;248;28213;-70
2022/09/15 07:31:04;;;;;;;13.73;8.90;;;14.10;99.90;;;;;;478952;248;28492;-71
2022/09/15 07:33:05;;;;;;;10.53;8.80;;;14.00;99.90;;;;;;478951;248;28977;-69
2022/09/15 07:35:07;;;;;;;17.90;9.80;;;14.00;99.90;;;;;;478926;248;29039;-70
2022/09/15 07:37:08;;;;;;;16.07;10.47;;;13.90;99.90;;;;;;478876;248;29186;-69
2022/09/15 07:39:09;;;;;;;16.50;9.20;;;13.80;99.90;;;;;;478976;247;28464;-70
2022/09/15 07:41:10;;;;;;;11.60;8.30;;;13.90;99.90;;;;;;478962;248;28749;-71
2022/09/15 07:43:12;;;;;;;14.90;9.20;;;14.10;99.90;;;;;;478919;248;28517;-69
2022/09/15 07:45:13;;;;;;;9.60;7.67;;;14.10;99.90;;;;;;478939;248;28773;-69
2022/09/15 07:47:14;;;;;;;11.33;8.70;;;14.30;99.90;;;;;;478882;248;28750;-69
2022/09/15 07:49:15;;;;;;;14.20;9.50;;;14.10;99.90;;;;;;478961;248;28377;-69
2022/09/15 07:51:17;;;;;;;13.50;9.73;;;14.10;99.90;;;;;;478974;248;28807;-70
2022/09/15 07:53:18;;;;;;;15.60;10.17;;;14.10;99.90;;;;;;478950;245;29182;-69
2022/09/15 07:55:19;;;;;;;15.00;9.53;;;14.10;99.90;;;;;;478916;248;28860;-70
2022/09/15 07:57:20;;;;;;;9.50;7.43;;;14.30;99.90;;;;;;478894;248;28339;-69
2022/09/15 07:59:22;;;;;;;10.53;8.20;;;14.40;99.90;;;;;;478979;248;28786;-68
2022/09/15 08:01:23;;;;;;;11.60;8.77;;;14.30;99.90;;;;;;478987;248;28825;-71
2022/09/15 08:03:24;;;;;;;11.80;8.60;;;14.40;99.90;;;;;;478980;248;28496;-68
2022/09/15 08:05:27;;;;;;;14.23;9.50;;;14.40;99.90;;;;;;478960;248;28843;-69
2022/09/15 08:07:27;;;;;;;10.73;9.00;;;14.20;99.90;;;;;;478855;248;29103;-69
2022/09/15 08:09:28;;;;;;;11.30;8.13;;;14.20;99.90;;;;;;478967;247;29281;-69
2022/09/15 08:11:29;;;;;;;9.00;7.53;;;14.30;99.90;;;;;;478964;248;29244;-71
2022/09/15 08:13:30;;;;;;;9.23;7.23;;;14.40;99.90;;;;;;478961;248;29184;-69
2022/09/15 08:15:32;;;;;;;9.23;6.90;;;14.50;99.90;;;;;;478933;248;28789;-72
2022/09/15 08:17:33;;;;;;;8.30;6.40;;;14.70;99.90;;;;;;478888;248;28836;-70
2022/09/15 08:19:34;;;;;;;18.33;7.80;;;14.60;99.90;;;;;;478971;248;28721;-70
2022/09/15 08:21:35;;;;;;;11.63;7.13;;;14.50;99.90;;;;;;478951;248;28859;-70
2022/09/15 08:23:37;;;;;;;8.47;6.60;;;14.50;99.90;;;;;;478928;248;28728;-68
2022/09/15 08:25:38;;;;;;;9.10;7.30;;;14.50;99.90;;;;;;478935;247;28767;-70
2022/09/15 08:27:39;;;;;;;7.20;6.30;;;14.40;99.90;;;;;;478891;248;29149;-72
2022/09/15 08:29:41;;;;;;;8.57;6.70;;;14.60;99.90;;;;;;478961;246;28730;-69
2022/09/15 08:31:43;;;;;;;12.30;7.40;;;14.70;99.90;;;;;;478921;248;29332;-70
2022/09/15 08:33:43;;;;;;;10.10;6.43;;;14.60;99.90;;;;;;478840;248;29298;-69
2022/09/15 08:35:44;;;;;;;8.90;7.17;;;14.60;99.90;;;;;;478908;248;29240;-69
2022/09/15 08:37:46;;;;;;;9.90;5.50;;;14.40;99.90;;;;;;478917;247;28799;-71
2022/09/15 08:39:47;;;;;;;10.67;6.63;;;14.60;99.90;;;;;;478972;248;28717;-69
2022/09/15 08:41:48;;;;;;;9.90;6.60;;;14.60;99.90;;;;;;478947;248;28754;-71
2022/09/15 08:43:49;;;;;;;9.60;6.30;;;14.50;99.90;;;;;;478909;248;28750;-69
2022/09/15 08:45:51;;;;;;;5.60;5.00;;;14.80;99.90;;;;;;478910;248;28825;-70
2022/09/15 08:47:54;;;;;;;7.20;5.70;;;15.00;99.90;;;;;;478909;248;28811;-72
2022/09/15 08:49:53;;;;;;;7.10;5.83;;;15.00;99.90;;;;;;478813;248;28710;-69
2022/09/15 08:51:54;;;;;;;7.80;4.80;;;15.00;99.90;;;;;;478955;248;28832;-70
2022/09/15 08:53:56;;;;;;;7.03;6.03;;;15.00;99.90;;;;;;478944;248;28885;-69
2022/09/15 08:55:57;;;;;;;8.53;5.30;;;14.90;99.90;;;;;;478922;248;29229;-70
2022/09/15 08:57:58;;;;;;;7.37;5.77;;;15.00;99.90;;;;;;478906;248;29458;-73
2022/09/15 08:59:59;;;;;;;7.50;5.87;;;14.80;99.90;;;;;;478983;248;29524;-69
2022/09/15 09:02:01;;;;;;;7.40;6.37;;;14.90;99.90;;;;;;478952;248;28824;-69
2022/09/15 09:04:02;;;;;;;7.80;5.80;;;14.70;99.90;;;;;;478937;248;28714;-69
2022/09/15 09:06:04;;;;;;;6.53;5.20;;;15.00;99.90;;;;;;478893;248;28848;-72
2022/09/15 09:08:05;;;;;;;6.10;5.50;;;15.20;99.90;;;;;;478920;248;28766;-72
2022/09/15 09:10:07;;;;;;;12.00;7.20;;;15.10;99.90;;;;;;478961;248;28776;-70
2022/09/15 09:12:08;;;;;;;10.83;6.10;;;14.70;99.90;;;;;;478938;248;28721;-69
2022/09/15 09:14:09;;;;;;;6.40;5.80;;;15.00;99.90;;;;;;478917;248;29244;-70
2022/09/15 09:16:11;;;;;;;5.80;5.20;;;15.20;99.90;;;;;;478917;248;29323;-72
2022/09/15 09:18:12;;;;;;;6.40;5.60;;;15.30;99.90;;;;;;478961;248;29208;-69
2022/09/15 09:20:13;;;;;;;5.87;5.27;;;15.20;99.90;;;;;;478955;248;28764;-70
2022/09/15 09:22:14;;;;;;;6.07;4.83;;;15.30;99.90;;;;;;478887;248;28709;-69
2022/09/15 09:24:16;;;;;;;8.13;5.63;;;15.30;99.90;;;;;;478925;248;28756;-69
2022/09/15 09:26:17;;;;;;;7.67;5.53;;;15.30;99.90;;;;;;478912;248;28883;-72
2022/09/15 09:28:18;;;;;;;6.20;4.70;;;15.30;99.90;;;;;;477885;248;36000;-69
2022/09/15 09:30:19;;;;;;;6.77;5.40;;;15.40;99.90;;;;;;478970;248;27535;-70
2022/09/15 09:32:21;;;;;;;5.30;4.80;;;15.50;99.90;;;;;;478924;248;28723;-68
2022/09/15 09:34:22;;;;;;;5.50;4.90;;;15.40;99.90;;;;;;478914;248;28779;-70
2022/09/15 09:36:23;;;;;;;6.93;5.77;;;15.40;99.90;;;;;;478887;248;29343;-73
2022/09/15 09:38:24;;;;;;;6.40;5.60;;;15.30;99.90;;;;;;478949;248;29202;-69
2022/09/15 09:40:27;;;;;;;8.53;5.47;;;15.30;99.90;;;;;;478964;248;29301;-69
2022/09/15 09:42:27;;;;;;;6.60;5.97;;;15.30;99.90;;;;;;478907;248;29153;-69
2022/09/15 09:44:31;;;;;;;7.90;5.90;;;15.10;99.90;;;;;;478949;248;28894;-69
2022/09/15 09:46:30;;;;;;;6.50;5.53;;;15.30;99.90;;;;;;478816;248;28765;-71
2022/09/15 09:48:31;;;;;;;5.33;4.83;;;15.40;99.90;;;;;;478968;248;28714;-69
2022/09/15 09:50:32;;;;;;;6.70;5.07;;;15.40;99.90;;;;;;478943;248;28745;-70
2022/09/15 09:52:33;;;;;;;6.10;4.80;;;15.40;99.90;;;;;;478925;248;28721;-70
2022/09/15 09:54:34;;;;;;;8.17;5.77;;;15.50;99.90;;;;;;478862;246;28783;-69
2022/09/15 09:56:36;;;;;;;7.47;5.80;;;15.50;99.90;;;;;;478884;248;28761;-73
2022/09/15 09:58:37;;;;;;;7.07;5.10;;;15.50;99.90;;;;;;478966;248;28798;-69
2022/09/15 10:00:38;;;;;;;6.57;5.90;;;15.60;99.90;;;;;;478921;248;28845;-70
2022/09/15 10:02:39;;;;;;;6.87;5.33;;;15.70;99.90;;;;;;478911;248;29239;-69
2022/09/15 10:04:41;;;;;;;7.10;5.90;;;15.80;99.90;;;;;;478947;248;29190;-69
2022/09/15 10:06:42;;;;;;;9.10;6.00;;;15.80;99.90;;;;;;478860;248;29400;-71
2022/09/15 10:08:43;;;;;;;8.10;6.27;;;15.70;99.90;;;;;;478882;248;28726;-69
2022/09/15 10:10:44;;;;;;;8.70;6.70;;;15.60;99.90;;;;;;478886;248;28744;-71
2022/09/15 10:12:46;;;;;;;9.30;6.93;;;15.60;99.90;;;;;;478839;248;28711;-69
2022/09/15 10:14:49;;;;;;;8.23;6.40;;;15.50;99.90;;;;;;478916;248;28803;-70
2022/09/15 10:16:48;;;;;;;7.47;6.67;;;15.60;99.90;;;;;;478779;248;28788;-72
2022/09/15 10:18:49;;;;;;;8.00;6.53;;;15.60;99.90;;;;;;478891;248;28776;-69
2022/09/15 10:20:51;;;;;;;6.83;6.13;;;15.70;99.90;;;;;;478901;248;28857;-70
2022/09/15 10:22:52;;;;;;;9.90;6.70;;;15.80;99.90;;;;;;478926;248;28725;-69
2022/09/15 10:24:53;;;;;;;7.50;6.50;;;15.80;99.90;;;;;;478957;248;28728;-69
2022/09/15 10:26:54;;;;;;;7.13;6.40;;;15.70;99.90;;;;;;478871;248;29316;-72
2022/09/15 10:28:56;;;;;;;7.20;6.50;;;15.70;99.90;;;;;;478947;248;29178;-69
2022/09/15 10:30:57;;;;;;;10.23;6.30;;;15.70;99.90;;;;;;478920;248;29352;-69